createdAt,value
2018-11-11T00:00:14.175Z,99.90
2018-11-11T00:02:43.088Z,99.90
2018-11-11T00:05:12.288Z,99.90
2018-11-11T00:07:41.491Z,99.90
2018-11-11T00:10:16.388Z,99.90
2018-11-11T00:12:45.283Z,99.90
2018-11-11T00:15:15.320Z,99.90
2018-11-11T00:17:45.261Z,99.90
2018-11-11T00:20:14.165Z,99.90
2018-11-11T00:22:43.543Z,99.90
2018-11-11T00:25:12.834Z,99.90
2018-11-11T00:27:41.798Z,99.90
2018-11-11T00:30:17.583Z,99.90
2018-11-11T00:32:46.392Z,99.90
2018-11-11T00:35:15.218Z,99.90
2018-11-11T00:37:44.100Z,99.90
2018-11-11T00:40:14.465Z,99.90
2018-11-11T00:42:43.660Z,99.90
2018-11-11T00:45:13.365Z,99.90
2018-11-11T00:47:42.455Z,99.90
2018-11-11T00:50:11.859Z,99.90
2018-11-11T00:52:40.807Z,99.90
2018-11-11T00:55:13.435Z,99.90
2018-11-11T00:57:43.068Z,99.90
2018-11-11T01:00:14.095Z,99.90
2018-11-11T01:02:43.603Z,99.90
2018-11-11T01:05:13.076Z,99.90
2018-11-11T01:07:42.500Z,99.90
2018-11-11T01:10:13.727Z,99.90
2018-11-11T01:12:43.623Z,99.90
2018-11-11T01:15:13.772Z,99.90
2018-11-11T01:17:42.628Z,99.90
2018-11-11T01:20:13.615Z,99.90
2018-11-11T01:22:42.903Z,99.90
2018-11-11T01:25:13.565Z,99.90
2018-11-11T01:27:42.595Z,99.90
2018-11-11T01:30:12.566Z,99.90
2018-11-11T01:32:41.413Z,99.90
2018-11-11T01:35:12.033Z,99.90
2018-11-11T01:37:41.435Z,99.90
2018-11-11T01:40:10.192Z,99.90
2018-11-11T01:42:39.011Z,99.90
2018-11-11T01:45:14.265Z,99.90
2018-11-11T01:47:43.977Z,99.90
2018-11-11T01:50:13.473Z,99.90
2018-11-11T01:52:42.386Z,99.90
2018-11-11T01:55:11.973Z,99.90
2018-11-11T01:57:40.878Z,99.90
2018-11-11T02:00:13.210Z,99.90
2018-11-11T02:02:42.793Z,99.90
2018-11-11T02:05:12.213Z,99.90
2018-11-11T02:07:41.868Z,99.90
2018-11-11T02:10:11.178Z,99.90
2018-11-11T02:12:42.173Z,99.90
2018-11-11T02:15:12.213Z,99.90
2018-11-11T02:17:41.106Z,99.90
2018-11-11T02:20:13.401Z,99.90
2018-11-11T02:22:44.041Z,99.90
2018-11-11T02:25:12.889Z,99.90
2018-11-11T02:27:41.648Z,99.90
2018-11-11T02:30:13.314Z,99.90
2018-11-11T02:32:42.528Z,99.90
2018-11-11T02:35:11.481Z,99.90
2018-11-11T02:37:40.354Z,99.90
2018-11-11T02:40:11.685Z,99.90
2018-11-11T02:42:40.463Z,99.90
2018-11-11T02:45:11.462Z,99.90
2018-11-11T02:47:40.220Z,99.90
2018-11-11T02:50:11.066Z,99.90
2018-11-11T02:52:40.593Z,99.90
2018-11-11T02:55:10.011Z,99.90
2018-11-11T02:57:39.115Z,99.90
2018-11-11T03:00:13.130Z,99.90
2018-11-11T03:02:42.930Z,99.90
2018-11-11T03:05:13.060Z,99.90
2018-11-11T03:07:41.970Z,99.90
2018-11-11T03:10:11.976Z,99.90
2018-11-11T03:12:41.229Z,99.90
2018-11-11T03:15:11.135Z,99.90
2018-11-11T03:17:39.903Z,99.90
2018-11-11T03:20:09.655Z,99.90
2018-11-11T03:22:38.461Z,99.90
2018-11-11T03:25:09.425Z,99.90
2018-11-11T03:27:39.074Z,99.90
2018-11-11T03:30:10.337Z,99.90
2018-11-11T03:32:39.537Z,99.90
2018-11-11T03:35:10.057Z,99.90
2018-11-11T03:37:39.053Z,99.90
2018-11-11T03:40:13.147Z,99.90
2018-11-11T03:42:42.164Z,99.90
2018-11-11T03:45:12.475Z,99.90
2018-11-11T03:47:42.185Z,99.90
2018-11-11T03:50:11.219Z,99.90
2018-11-11T03:52:40.375Z,99.90
2018-11-11T03:55:09.465Z,99.90
2018-11-11T03:57:38.365Z,99.90
2018-11-11T04:00:09.823Z,99.90
2018-11-11T04:02:38.692Z,99.90
2018-11-11T04:05:09.258Z,99.90
2018-11-11T04:07:38.308Z,99.90
2018-11-11T04:10:10.179Z,99.90
2018-11-11T04:12:39.381Z,99.90
2018-11-11T04:15:10.413Z,99.90
2018-11-11T04:17:39.471Z,99.90
2018-11-11T04:20:11.150Z,99.90
2018-11-11T04:22:39.934Z,99.90
2018-11-11T04:25:09.218Z,99.90
2018-11-11T04:27:37.960Z,99.90
2018-11-11T04:30:07.851Z,99.90
2018-11-11T04:32:36.575Z,99.90
2018-11-11T04:35:06.150Z,99.90
2018-11-11T04:37:34.864Z,99.90
2018-11-11T04:40:04.077Z,99.90
2018-11-11T04:42:32.775Z,99.90
2018-11-11T04:45:01.607Z,99.90
2018-11-11T04:47:30.437Z,99.90
2018-11-11T04:49:59.192Z,99.90
2018-11-11T04:52:27.965Z,99.90
2018-11-11T04:54:56.757Z,99.90
2018-11-11T04:57:25.538Z,99.90
2018-11-11T04:59:54.253Z,99.90
2018-11-11T05:02:22.983Z,99.90
2018-11-11T05:04:51.807Z,99.90
2018-11-11T05:07:20.599Z,99.90
2018-11-11T05:09:49.290Z,99.90
2018-11-11T05:12:18.110Z,99.90
2018-11-11T05:14:46.907Z,99.90
2018-11-11T05:17:15.690Z,99.90
2018-11-11T05:19:44.486Z,99.90
2018-11-11T05:22:13.276Z,99.90
2018-11-11T05:24:42.071Z,99.90
2018-11-11T05:27:10.803Z,99.90
2018-11-11T05:29:39.517Z,99.90
2018-11-11T05:32:08.322Z,99.90
2018-11-11T05:34:37.298Z,99.90
2018-11-11T05:37:06.865Z,99.90
2018-11-11T05:39:35.635Z,99.90
2018-11-11T05:42:04.460Z,99.90
2018-11-11T05:44:33.272Z,99.90
2018-11-11T05:47:02.042Z,99.90
2018-11-11T05:49:30.736Z,99.90
2018-11-11T05:51:59.413Z,99.90
2018-11-11T05:54:28.325Z,99.90
2018-11-11T05:56:57.042Z,99.90
2018-11-11T05:59:25.781Z,99.90
2018-11-11T06:01:54.553Z,99.90
2018-11-11T06:04:23.305Z,99.90
2018-11-11T06:06:52.100Z,99.90
2018-11-11T06:09:20.912Z,99.90
2018-11-11T06:11:49.722Z,99.90
2018-11-11T06:14:18.543Z,99.90
2018-11-11T06:16:47.330Z,99.90
2018-11-11T06:19:16.278Z,99.90
2018-11-11T06:21:45.198Z,99.90
2018-11-11T06:24:14.028Z,99.90
2018-11-11T06:26:42.870Z,99.90
2018-11-11T06:29:11.647Z,99.90
2018-11-11T06:31:40.444Z,99.90
2018-11-11T06:34:09.336Z,99.90
2018-11-11T06:36:38.116Z,99.90
2018-11-11T06:39:09.782Z,99.90
2018-11-11T06:41:38.575Z,99.90
2018-11-11T06:44:08.213Z,99.90
2018-11-11T06:46:37.028Z,99.90
2018-11-11T06:49:05.876Z,99.90
2018-11-11T06:51:34.921Z,99.90
2018-11-11T06:54:03.719Z,99.90
2018-11-11T06:56:32.456Z,99.90
2018-11-11T06:59:01.183Z,99.90
2018-11-11T07:01:29.967Z,99.90
2018-11-11T07:04:00.758Z,99.90
2018-11-11T07:06:30.053Z,99.90
2018-11-11T07:08:58.872Z,99.90
2018-11-11T07:11:27.667Z,99.90
2018-11-11T07:13:56.514Z,99.90
2018-11-11T07:16:25.279Z,99.90
2018-11-11T07:18:54.068Z,99.90
2018-11-11T07:21:22.845Z,99.90
2018-11-11T07:23:51.762Z,99.90
2018-11-11T07:26:20.623Z,99.90
2018-11-11T07:28:49.419Z,99.90
2018-11-11T07:31:18.248Z,99.90
2018-11-11T07:33:47.232Z,99.90
2018-11-11T07:36:16.053Z,99.90
2018-11-11T07:38:44.853Z,99.90
2018-11-11T07:41:13.708Z,99.90
2018-11-11T07:43:42.495Z,99.90
2018-11-11T07:46:11.971Z,99.90
2018-11-11T07:48:40.739Z,99.90
2018-11-11T07:51:09.725Z,99.90
2018-11-11T07:53:38.550Z,99.90
2018-11-11T07:56:07.317Z,99.90
2018-11-11T07:58:36.245Z,99.90
2018-11-11T08:01:05.328Z,99.90
2018-11-11T08:03:34.193Z,99.90
2018-11-11T08:06:03.086Z,99.90
2018-11-11T08:08:31.971Z,99.90
2018-11-11T08:11:17.896Z,99.90
2018-11-11T08:13:46.796Z,99.90
2018-11-11T08:16:15.632Z,99.90
2018-11-11T08:18:44.425Z,99.90
2018-11-11T08:21:13.165Z,99.90
2018-11-11T08:23:41.872Z,99.90
2018-11-11T08:26:10.785Z,99.90
2018-11-11T08:28:39.603Z,99.90
2018-11-11T08:31:09.067Z,99.90
2018-11-11T08:33:38.016Z,99.90
2018-11-11T08:36:06.873Z,99.70
2018-11-11T08:38:35.620Z,98.30
2018-11-11T08:41:05.227Z,92.80
2018-11-11T08:43:34.015Z,93.70
2018-11-11T08:46:02.807Z,93.10
2018-11-11T08:48:31.588Z,93.40
2018-11-11T08:51:00.308Z,93.80
2018-11-11T08:53:29.059Z,93.40
2018-11-11T08:55:57.815Z,94.50
2018-11-11T08:58:26.945Z,91.70
2018-11-11T09:00:55.838Z,89.40
2018-11-11T09:03:25.538Z,89.90
2018-11-11T09:05:54.355Z,91.50
2018-11-11T09:08:23.133Z,90.50
2018-11-11T09:10:51.908Z,92.60
2018-11-11T09:13:20.716Z,92.10
2018-11-11T09:15:49.475Z,91.40
2018-11-11T09:18:18.213Z,89.80
2018-11-11T09:20:46.937Z,89.50
2018-11-11T09:23:15.660Z,88.10
2018-11-11T09:25:44.463Z,85.20
2018-11-11T09:28:13.232Z,83.70
2018-11-11T09:30:42.075Z,83.80
2018-11-11T09:33:10.868Z,83.50
2018-11-11T09:35:39.647Z,86.00
2018-11-11T09:38:08.413Z,84.90
2018-11-11T09:40:37.357Z,87.50
2018-11-11T09:43:06.645Z,87.60
2018-11-11T09:45:35.575Z,87.30
2018-11-11T09:48:04.434Z,83.70
2018-11-11T09:50:33.104Z,80.60
2018-11-11T09:53:01.811Z,78.80
2018-11-11T09:55:30.560Z,76.90
2018-11-11T09:57:59.428Z,75.60
2018-11-11T10:00:28.231Z,73.00
2018-11-11T10:04:03.436Z,73.00
2018-11-11T10:06:52.796Z,73.50
2018-11-11T10:09:27.418Z,70.80
2018-11-11T10:12:17.268Z,67.60
2018-11-11T10:15:07.936Z,66.70
2018-11-11T10:17:42.840Z,66.20
2018-11-11T10:20:19.295Z,66.20
2018-11-11T10:23:08.050Z,64.90
2018-11-11T10:25:58.677Z,61.60
2018-11-11T10:29:36.670Z,62.20
2018-11-11T10:32:29.518Z,62.50
2018-11-11T10:35:01.820Z,57.70
2018-11-11T10:37:34.711Z,59.80
2018-11-11T10:40:09.405Z,59.70
2018-11-11T10:42:43.653Z,58.50
2018-11-11T10:45:21.770Z,59.70
2018-11-11T10:48:00.674Z,57.70
2018-11-11T10:50:32.242Z,55.50
2018-11-11T10:53:01.038Z,56.90
2018-11-11T10:55:29.887Z,55.50
2018-11-11T10:57:58.738Z,53.10
2018-11-11T11:00:28.480Z,49.10
2018-11-11T11:02:58.497Z,49.20
2018-11-11T11:05:27.351Z,46.70
2018-11-11T11:07:56.157Z,45.90
2018-11-11T11:10:24.908Z,50.90
2018-11-11T11:12:53.685Z,49.90
2018-11-11T11:15:22.490Z,48.60
2018-11-11T11:17:51.298Z,48.60
2018-11-11T11:20:20.090Z,49.70
2018-11-11T11:22:48.938Z,46.80
2018-11-11T11:25:18.267Z,47.80
2018-11-11T11:27:47.008Z,47.80
2018-11-11T11:30:15.796Z,45.40
2018-11-11T11:32:44.519Z,42.20
2018-11-11T11:35:13.344Z,40.10
2018-11-11T11:37:42.264Z,42.50
2018-11-11T11:40:11.073Z,45.10
2018-11-11T11:42:39.867Z,48.20
2018-11-11T11:45:10.250Z,46.80
2018-11-11T11:47:39.086Z,45.40
2018-11-11T11:50:10.195Z,45.00
2018-11-11T11:52:39.231Z,44.20
2018-11-11T11:55:08.868Z,44.10
2018-11-11T11:57:37.814Z,43.00
2018-11-11T12:00:10.276Z,42.20
2018-11-11T12:02:39.491Z,45.00
2018-11-11T12:05:09.468Z,44.10
2018-11-11T12:07:38.858Z,44.00
2018-11-11T12:10:09.795Z,42.40
2018-11-11T12:12:39.229Z,39.30
2018-11-11T12:15:09.478Z,39.30
2018-11-11T12:17:38.710Z,39.90
2018-11-11T12:20:08.656Z,40.90
2018-11-11T12:22:37.740Z,43.10
2018-11-11T12:25:07.567Z,44.20
2018-11-11T12:27:36.453Z,46.80
2018-11-11T12:30:07.851Z,47.10
2018-11-11T12:32:36.878Z,48.40
2018-11-11T12:35:06.834Z,50.00
2018-11-11T12:37:35.990Z,50.10
2018-11-11T12:40:06.818Z,50.50
2018-11-11T12:42:36.076Z,50.00
2018-11-11T12:45:06.001Z,49.60
2018-11-11T12:47:35.020Z,51.80
2018-11-11T12:50:04.185Z,53.20
2018-11-11T12:52:33.527Z,52.90
2018-11-11T12:55:04.060Z,54.50
2018-11-11T12:57:33.052Z,55.10
2018-11-11T13:00:02.261Z,56.10
2018-11-11T13:02:33.111Z,56.90
2018-11-11T13:05:02.023Z,56.80
2018-11-11T13:07:30.961Z,57.30
2018-11-11T13:09:59.839Z,55.80
2018-11-11T13:12:29.761Z,55.40
2018-11-11T13:14:58.902Z,55.90
2018-11-11T13:17:27.900Z,56.40
2018-11-11T13:19:56.908Z,57.40
2018-11-11T13:22:26.157Z,56.40
2018-11-11T13:24:55.118Z,57.40
2018-11-11T13:27:24.805Z,57.40
2018-11-11T13:29:53.744Z,57.60
2018-11-11T13:32:22.944Z,53.80
2018-11-11T13:34:51.860Z,51.50
2018-11-11T13:37:20.754Z,47.70
2018-11-11T13:39:49.666Z,46.40
2018-11-11T13:42:19.720Z,44.50
2018-11-11T13:44:48.536Z,45.70
2018-11-11T13:47:17.369Z,48.10
2018-11-11T13:49:46.138Z,48.80
2018-11-11T13:52:14.986Z,47.50
2018-11-11T13:54:43.765Z,47.60
2018-11-11T13:57:13.279Z,48.40
2018-11-11T13:59:42.183Z,51.10
2018-11-11T14:02:10.998Z,52.70
2018-11-11T14:04:39.780Z,53.40
2018-11-11T14:07:08.645Z,51.20
2018-11-11T14:09:37.520Z,56.00
2018-11-11T14:12:06.445Z,58.60
2018-11-11T14:14:35.228Z,59.00
2018-11-11T14:17:04.192Z,58.90
2018-11-11T14:19:33.150Z,58.00
2018-11-11T14:22:01.865Z,60.20
2018-11-11T14:24:31.606Z,59.90
2018-11-11T14:27:00.484Z,60.10
2018-11-11T14:29:29.227Z,60.80
2018-11-11T14:31:58.014Z,60.10
2018-11-11T14:34:26.848Z,60.60
2018-11-11T14:36:55.625Z,60.50
2018-11-11T14:39:24.516Z,61.60
2018-11-11T14:41:53.313Z,63.10
2018-11-11T14:44:22.235Z,66.50
2018-11-11T14:46:51.073Z,68.30
2018-11-11T14:49:19.981Z,69.80
2018-11-11T14:51:48.793Z,71.70
2018-11-11T14:54:17.465Z,74.60
2018-11-11T14:56:46.275Z,75.60
2018-11-11T14:59:15.928Z,76.80
2018-11-11T15:01:44.817Z,77.50
2018-11-11T15:04:13.641Z,78.20
2018-11-11T15:06:42.512Z,78.90
2018-11-11T15:09:12.190Z,79.80
2018-11-11T15:11:41.486Z,79.90
2018-11-11T15:14:10.972Z,80.00
2018-11-11T15:16:40.252Z,80.10
2018-11-11T15:19:09.060Z,81.40
2018-11-11T15:21:37.821Z,80.90
2018-11-11T15:24:07.048Z,78.80
2018-11-11T15:26:35.915Z,78.10
2018-11-11T15:29:05.455Z,77.90
2018-11-11T15:31:35.203Z,79.10
2018-11-11T15:34:04.473Z,81.30
2018-11-11T15:36:33.208Z,82.00
2018-11-11T15:39:01.962Z,82.90
2018-11-11T15:41:30.909Z,83.70
2018-11-11T15:44:00.618Z,84.40
2018-11-11T15:46:29.395Z,84.30
2018-11-11T15:48:58.186Z,85.00
2018-11-11T15:51:26.933Z,84.30
2018-11-11T15:53:55.705Z,84.50
2018-11-11T15:56:24.427Z,84.60
2018-11-11T15:58:53.316Z,84.80
2018-11-11T16:01:22.121Z,84.60
2018-11-11T16:03:50.860Z,84.80
2018-11-11T16:06:19.629Z,85.70
2018-11-11T16:08:48.513Z,85.30
2018-11-11T16:11:17.225Z,83.90
2018-11-11T16:13:45.933Z,83.90
2018-11-11T16:16:15.120Z,84.50
2018-11-11T16:18:43.874Z,84.90
2018-11-11T16:21:12.715Z,86.10
2018-11-11T16:23:41.609Z,86.20
2018-11-11T16:26:10.504Z,86.50
2018-11-11T16:28:39.578Z,88.40
2018-11-11T16:31:08.428Z,87.90
2018-11-11T16:33:37.271Z,88.60
2018-11-11T16:36:06.500Z,88.10
2018-11-11T16:38:35.647Z,88.50
2018-11-11T16:41:04.581Z,88.00
2018-11-11T16:43:33.238Z,88.10
2018-11-11T16:46:02.025Z,88.10
2018-11-11T16:48:30.827Z,87.40
2018-11-11T16:50:59.562Z,86.80
2018-11-11T16:53:28.400Z,87.60
2018-11-11T16:55:57.259Z,89.30
2018-11-11T16:58:26.053Z,91.40
2018-11-11T17:00:54.939Z,91.80
2018-11-11T17:03:23.808Z,92.40
2018-11-11T17:05:52.699Z,93.60
2018-11-11T17:08:21.800Z,95.00
2018-11-11T17:10:50.625Z,95.50
2018-11-11T17:13:19.427Z,95.10
2018-11-11T17:15:48.265Z,96.20
2018-11-11T17:18:17.065Z,96.70
2018-11-11T17:20:45.893Z,97.00
2018-11-11T17:23:14.695Z,98.00
2018-11-11T17:25:43.524Z,98.30
2018-11-11T17:28:12.476Z,98.30
2018-11-11T17:30:41.282Z,99.30
2018-11-11T17:33:10.064Z,99.60
2018-11-11T17:35:38.834Z,99.30
2018-11-11T17:38:07.595Z,99.50
2018-11-11T17:40:36.348Z,99.60
2018-11-11T17:43:05.458Z,99.70
2018-11-11T17:45:34.262Z,99.90
2018-11-11T17:48:03.613Z,99.90
2018-11-11T17:50:33.283Z,99.90
2018-11-11T17:53:03.312Z,99.90
2018-11-11T17:55:32.303Z,99.90
2018-11-11T17:58:00.980Z,99.90
2018-11-11T18:00:31.431Z,99.90
2018-11-11T18:03:01.528Z,99.90
2018-11-11T18:05:30.927Z,99.90
2018-11-11T18:08:00.551Z,99.90
2018-11-11T18:10:29.503Z,99.90
2018-11-11T18:12:58.277Z,99.90
2018-11-11T18:15:29.459Z,99.90
2018-11-11T18:17:58.310Z,99.90
2018-11-11T18:20:28.516Z,99.90
2018-11-11T18:22:58.265Z,99.90
2018-11-11T18:25:27.070Z,99.90
2018-11-11T18:27:56.909Z,99.90
2018-11-11T18:30:31.065Z,99.90
2018-11-11T18:32:59.861Z,99.90
2018-11-11T18:35:28.665Z,99.90
2018-11-11T18:37:57.465Z,99.90
2018-11-11T18:40:27.270Z,99.90
2018-11-11T18:42:56.118Z,99.90
2018-11-11T18:45:27.333Z,99.90
2018-11-11T18:47:56.146Z,99.90
2018-11-11T18:50:28.388Z,99.90
2018-11-11T18:52:57.232Z,99.90
2018-11-11T18:55:26.032Z,99.90
2018-11-11T18:57:54.932Z,99.90
2018-11-11T19:00:24.926Z,99.90
2018-11-11T19:02:54.532Z,99.90
2018-11-11T19:05:24.037Z,99.90
2018-11-11T19:07:52.905Z,99.90
2018-11-11T19:10:25.898Z,99.90
2018-11-11T19:12:56.395Z,99.90
2018-11-11T19:15:25.163Z,99.90
2018-11-11T19:17:54.938Z,99.90
2018-11-11T19:20:24.979Z,99.90
2018-11-11T19:22:53.995Z,99.90
2018-11-11T19:25:24.232Z,99.90
2018-11-11T19:27:53.781Z,99.90
2018-11-11T19:30:24.437Z,99.90
2018-11-11T19:32:53.628Z,99.90
2018-11-11T19:35:22.553Z,99.90
2018-11-11T19:37:53.498Z,99.90
2018-11-11T19:40:23.593Z,99.90
2018-11-11T19:42:54.021Z,99.90
2018-11-11T19:45:24.213Z,99.90
2018-11-11T19:47:53.388Z,99.90
2018-11-11T19:50:23.467Z,99.90
2018-11-11T19:52:53.160Z,99.90
2018-11-11T19:55:24.230Z,99.90
2018-11-11T19:57:53.138Z,99.90
2018-11-11T20:00:26.855Z,99.90
2018-11-11T20:02:56.514Z,99.90
2018-11-11T20:05:25.328Z,99.90
2018-11-11T20:07:55.636Z,99.90
2018-11-11T20:10:25.706Z,99.90
2018-11-11T20:12:54.552Z,99.90
2018-11-11T20:15:25.835Z,99.90
2018-11-11T20:17:55.102Z,99.90
2018-11-11T20:20:31.527Z,99.90
2018-11-11T20:23:00.448Z,99.90
2018-11-11T20:25:29.423Z,99.90
2018-11-11T20:27:58.224Z,99.90
2018-11-11T20:30:29.366Z,99.90
2018-11-11T20:32:59.023Z,99.90
2018-11-11T20:35:29.125Z,99.90
2018-11-11T20:37:58.451Z,99.90
2018-11-11T20:40:27.972Z,99.90
2018-11-11T20:42:57.520Z,99.90
2018-11-11T20:45:28.925Z,99.90
2018-11-11T20:47:59.593Z,99.90
2018-11-11T20:50:29.778Z,99.90
2018-11-11T20:53:01.233Z,99.90
2018-11-11T20:55:30.548Z,99.90
2018-11-11T20:57:59.553Z,99.90
2018-11-11T21:00:32.821Z,99.90
2018-11-11T21:03:01.846Z,99.90
2018-11-11T21:05:30.984Z,99.90
2018-11-11T21:07:59.878Z,99.90
2018-11-11T21:10:29.943Z,99.90
2018-11-11T21:12:59.518Z,99.90
2018-11-11T21:15:30.113Z,99.90
2018-11-11T21:17:59.599Z,99.90
2018-11-11T21:20:30.591Z,99.90
2018-11-11T21:22:59.442Z,99.90
2018-11-11T21:25:28.291Z,99.90
2018-11-11T21:27:57.086Z,99.90
2018-11-11T21:30:27.148Z,99.90
2018-11-11T21:32:55.873Z,99.90
2018-11-11T21:35:24.691Z,99.90
2018-11-11T21:37:56.549Z,99.90
2018-11-11T21:40:27.303Z,99.90
2018-11-11T21:42:57.606Z,99.90
2018-11-11T21:45:27.341Z,99.90
2018-11-11T21:47:56.100Z,99.90
2018-11-11T21:50:25.858Z,99.90
2018-11-11T21:53:08.118Z,99.90
2018-11-11T21:55:36.880Z,99.90
2018-11-11T21:58:05.828Z,99.90
2018-11-11T22:00:34.786Z,99.90
2018-11-11T22:03:03.926Z,99.90
2018-11-11T22:05:32.850Z,99.90
2018-11-11T22:08:02.103Z,99.90
2018-11-11T22:10:30.943Z,99.90
2018-11-11T22:12:59.850Z,99.90
2018-11-11T22:15:28.592Z,99.90
2018-11-11T22:17:57.329Z,99.90
2018-11-11T22:20:26.013Z,99.90
2018-11-11T22:22:54.773Z,99.90
2018-11-11T22:25:24.025Z,99.90
2018-11-11T22:27:52.867Z,99.90
2018-11-11T22:30:21.725Z,99.90
2018-11-11T22:32:50.593Z,99.90
2018-11-11T22:35:19.378Z,99.90
2018-11-11T22:37:48.105Z,99.90
2018-11-11T22:40:16.831Z,99.90
2018-11-11T22:42:45.566Z,99.90
2018-11-11T22:45:14.900Z,99.90
2018-11-11T22:47:43.612Z,99.90
2018-11-11T22:50:15.680Z,99.90
2018-11-11T22:52:45.309Z,99.90
2018-11-11T22:55:14.113Z,99.90
2018-11-11T22:57:43.253Z,99.90
2018-11-11T23:00:19.527Z,99.90
2018-11-11T23:02:48.568Z,99.90
2018-11-11T23:05:18.508Z,99.90
2018-11-11T23:07:47.393Z,99.90
2018-11-11T23:10:16.466Z,99.90
2018-11-11T23:12:45.417Z,99.90
2018-11-11T23:15:15.677Z,99.90
2018-11-11T23:17:44.434Z,99.90
2018-11-11T23:20:15.757Z,99.90
2018-11-11T23:22:44.486Z,99.90
2018-11-11T23:25:14.467Z,99.90
2018-11-11T23:27:43.206Z,99.90
2018-11-11T23:30:15.717Z,99.90
2018-11-11T23:32:44.959Z,99.90
2018-11-11T23:35:13.707Z,99.90
2018-11-11T23:37:42.825Z,99.90
2018-11-11T23:40:12.942Z,99.90
2018-11-11T23:42:42.497Z,99.90
2018-11-11T23:45:11.321Z,99.90
2018-11-11T23:47:40.433Z,99.90
2018-11-11T23:50:12.574Z,99.90
2018-11-11T23:52:41.865Z,99.90
2018-11-11T23:55:12.195Z,99.90
2018-11-11T23:57:40.964Z,99.90
